sensor_id;sensor_type;location;lat;lon;timestamp;temperature;humidity
25877;DHT22;13692;47.480;19.216;2023-03-17T00:01:47;1.20;99.90
25877;DHT22;13692;47.480;19.216;2023-03-17T00:04:22;1.20;99.90
25877;DHT22;13692;47.480;19.216;2023-03-17T00:06:50;1.10;99.90
25877;DHT22;13692;47.480;19.216;2023-03-17T00:09:19;1.10;99.90
25877;DHT22;13692;47.480;19.216;2023-03-17T00:11:47;1.20;99.90
25877;DHT22;13692;47.480;19.216;2023-03-17T00:14:14;1.10;99.90
25877;DHT22;13692;47.480;19.216;2023-03-17T00:16:44;1.10;99.90
25877;DHT22;13692;47.480;19.216;2023-03-17T00:19:22;1.10;99.90
25877;DHT22;13692;47.480;19.216;2023-03-17T00:21:51;1.10;99.90
25877;DHT22;13692;47.480;19.216;2023-03-17T00:24:18;1.10;99.90
25877;DHT22;13692;47.480;19.216;2023-03-17T00:26:45;1.10;99.90
25877;DHT22;13692;47.480;19.216;2023-03-17T00:29:12;1.10;99.90
25877;DHT22;13692;47.480;19.216;2023-03-17T00:31:39;1.10;99.90
25877;DHT22;13692;47.480;19.216;2023-03-17T00:34:10;1.10;99.90
25877;DHT22;13692;47.480;19.216;2023-03-17T00:36:42;1.00;99.90
25877;DHT22;13692;47.480;19.216;2023-03-17T00:39:15;1.00;99.90
25877;DHT22;13692;47.480;19.216;2023-03-17T00:41:42;0.90;99.90
25877;DHT22;13692;47.480;19.216;2023-03-17T00:44:10;0.90;99.90
25877;DHT22;13692;47.480;19.216;2023-03-17T00:46:38;0.90;99.90
25877;DHT22;13692;47.480;19.216;2023-03-17T00:49:14;0.90;99.90
25877;DHT22;13692;47.480;19.216;2023-03-17T00:51:42;0.90;99.90
25877;DHT22;13692;47.480;19.216;2023-03-17T00:54:11;0.90;99.90
25877;DHT22;13692;47.480;19.216;2023-03-17T00:56:39;0.80;99.90
25877;DHT22;13692;47.480;19.216;2023-03-17T00:59:24;0.90;99.90
25877;DHT22;13692;47.480;19.216;2023-03-17T01:01:52;0.80;99.90
25877;DHT22;13692;47.480;19.216;2023-03-17T01:04:19;0.80;99.90
25877;DHT22;13692;47.480;19.216;2023-03-17T01:06:47;0.80;99.90
25877;DHT22;13692;47.480;19.216;2023-03-17T01:09:16;0.70;99.90
25877;DHT22;13692;47.480;19.216;2023-03-17T01:11:44;0.70;99.90
25877;DHT22;13692;47.480;19.216;2023-03-17T01:14:11;0.80;99.90
25877;DHT22;13692;47.480;19.216;2023-03-17T01:16:38;0.90;99.90
25877;DHT22;13692;47.480;19.216;2023-03-17T01:19:07;0.90;99.90
25877;DHT22;13692;47.480;19.216;2023-03-17T01:21:34;0.70;99.90
25877;DHT22;13692;47.480;19.216;2023-03-17T01:24:01;0.70;99.90
25877;DHT22;13692;47.480;19.216;2023-03-17T01:26:28;0.70;99.90
25877;DHT22;13692;47.480;19.216;2023-03-17T01:28:55;0.70;99.90
25877;DHT22;13692;47.480;19.216;2023-03-17T01:31:22;0.70;99.90
25877;DHT22;13692;47.480;19.216;2023-03-17T01:33:50;0.60;99.90
25877;DHT22;13692;47.480;19.216;2023-03-17T01:36:18;0.60;99.90
25877;DHT22;13692;47.480;19.216;2023-03-17T01:38:46;0.60;99.90
25877;DHT22;13692;47.480;19.216;2023-03-17T01:41:19;0.60;99.90
25877;DHT22;13692;47.480;19.216;2023-03-17T01:43:47;0.50;99.90
25877;DHT22;13692;47.480;19.216;2023-03-17T01:46:30;0.60;99.90
25877;DHT22;13692;47.480;19.216;2023-03-17T01:54:15;0.40;99.90
25877;DHT22;13692;47.480;19.216;2023-03-17T01:56:44;0.30;99.90
25877;DHT22;13692;47.480;19.216;2023-03-17T01:59:18;0.30;99.90
25877;DHT22;13692;47.480;19.216;2023-03-17T02:01:47;0.30;99.90
25877;DHT22;13692;47.480;19.216;2023-03-17T02:04:17;0.20;99.90
25877;DHT22;13692;47.480;19.216;2023-03-17T02:06:46;0.20;99.90
25877;DHT22;13692;47.480;19.216;2023-03-17T02:09:25;0.20;99.90
25877;DHT22;13692;47.480;19.216;2023-03-17T02:11:53;0.20;99.90
25877;DHT22;13692;47.480;19.216;2023-03-17T02:14:21;0.20;99.90
25877;DHT22;13692;47.480;19.216;2023-03-17T02:16:48;0.20;99.90
25877;DHT22;13692;47.480;19.216;2023-03-17T02:19:15;0.20;99.90
25877;DHT22;13692;47.480;19.216;2023-03-17T02:21:48;0.20;99.90
25877;DHT22;13692;47.480;19.216;2023-03-17T02:24:27;0.20;99.90
25877;DHT22;13692;47.480;19.216;2023-03-17T02:27:03;0.20;99.90
25877;DHT22;13692;47.480;19.216;2023-03-17T02:29:33;0.30;99.90
25877;DHT22;13692;47.480;19.216;2023-03-17T02:32:04;0.20;99.90
25877;DHT22;13692;47.480;19.216;2023-03-17T02:34:32;0.20;99.90
25877;DHT22;13692;47.480;19.216;2023-03-17T02:36:59;0.10;99.90
25877;DHT22;13692;47.480;19.216;2023-03-17T02:39:26;0.00;99.90
25877;DHT22;13692;47.480;19.216;2023-03-17T02:41:53;0.00;99.90
25877;DHT22;13692;47.480;19.216;2023-03-17T02:44:20;0.00;99.90
25877;DHT22;13692;47.480;19.216;2023-03-17T02:46:47;0.00;99.90
25877;DHT22;13692;47.480;19.216;2023-03-17T02:49:15;0.00;99.90
25877;DHT22;13692;47.480;19.216;2023-03-17T02:51:43;-0.10;99.90
25877;DHT22;13692;47.480;19.216;2023-03-17T02:54:11;0.00;99.90
25877;DHT22;13692;47.480;19.216;2023-03-17T02:56:38;0.00;99.90
25877;DHT22;13692;47.480;19.216;2023-03-17T02:59:05;0.00;99.90
25877;DHT22;13692;47.480;19.216;2023-03-17T03:01:33;0.00;99.90
25877;DHT22;13692;47.480;19.216;2023-03-17T03:04:00;0.00;99.90
25877;DHT22;13692;47.480;19.216;2023-03-17T03:06:27;0.00;99.90
25877;DHT22;13692;47.480;19.216;2023-03-17T03:08:54;0.10;99.90
25877;DHT22;13692;47.480;19.216;2023-03-17T03:11:21;0.10;99.90
25877;DHT22;13692;47.480;19.216;2023-03-17T03:13:48;0.10;99.90
25877;DHT22;13692;47.480;19.216;2023-03-17T03:16:16;0.00;99.90
25877;DHT22;13692;47.480;19.216;2023-03-17T03:18:43;0.00;99.90
25877;DHT22;13692;47.480;19.216;2023-03-17T03:21:10;0.00;99.90
25877;DHT22;13692;47.480;19.216;2023-03-17T03:23:37;0.00;99.90
25877;DHT22;13692;47.480;19.216;2023-03-17T03:26:04;0.00;99.90
25877;DHT22;13692;47.480;19.216;2023-03-17T03:28:31;-0.10;99.90
25877;DHT22;13692;47.480;19.216;2023-03-17T03:30:58;-0.10;99.90
25877;DHT22;13692;47.480;19.216;2023-03-17T03:33:25;-0.10;99.90
25877;DHT22;13692;47.480;19.216;2023-03-17T03:35:52;-0.20;99.90
25877;DHT22;13692;47.480;19.216;2023-03-17T03:38:19;-0.30;99.90
25877;DHT22;13692;47.480;19.216;2023-03-17T03:40:46;-0.30;99.90
25877;DHT22;13692;47.480;19.216;2023-03-17T03:43:13;-0.30;99.90
25877;DHT22;13692;47.480;19.216;2023-03-17T03:45:49;-0.30;99.90
25877;DHT22;13692;47.480;19.216;2023-03-17T03:48:17;-0.20;99.90
25877;DHT22;13692;47.480;19.216;2023-03-17T03:50:44;-0.30;99.90
25877;DHT22;13692;47.480;19.216;2023-03-17T03:53:12;-0.30;99.90
25877;DHT22;13692;47.480;19.216;2023-03-17T03:55:40;-0.20;99.90
25877;DHT22;13692;47.480;19.216;2023-03-17T03:58:07;-0.20;99.90
25877;DHT22;13692;47.480;19.216;2023-03-17T04:00:34;-0.10;99.90
25877;DHT22;13692;47.480;19.216;2023-03-17T04:03:01;-0.20;99.90
25877;DHT22;13692;47.480;19.216;2023-03-17T04:05:29;-0.30;99.90
25877;DHT22;13692;47.480;19.216;2023-03-17T04:07:56;-0.30;99.90
25877;DHT22;13692;47.480;19.216;2023-03-17T04:10:22;-0.40;99.90
25877;DHT22;13692;47.480;19.216;2023-03-17T04:12:50;-0.50;99.90
25877;DHT22;13692;47.480;19.216;2023-03-17T04:15:18;-0.50;99.90
25877;DHT22;13692;47.480;19.216;2023-03-17T04:17:46;-0.50;99.90
25877;DHT22;13692;47.480;19.216;2023-03-17T04:20:14;-0.50;99.90
25877;DHT22;13692;47.480;19.216;2023-03-17T04:22:42;-0.50;99.90
25877;DHT22;13692;47.480;19.216;2023-03-17T04:25:11;-0.50;99.90
25877;DHT22;13692;47.480;19.216;2023-03-17T04:27:40;-0.40;99.90
25877;DHT22;13692;47.480;19.216;2023-03-17T04:30:11;-0.40;99.90
25877;DHT22;13692;47.480;19.216;2023-03-17T04:32:40;-0.50;99.90
25877;DHT22;13692;47.480;19.216;2023-03-17T04:35:15;-0.50;99.90
25877;DHT22;13692;47.480;19.216;2023-03-17T04:37:42;-0.50;99.90
25877;DHT22;13692;47.480;19.216;2023-03-17T04:40:11;-0.40;99.90
25877;DHT22;13692;47.480;19.216;2023-03-17T04:42:38;-0.40;99.90
25877;DHT22;13692;47.480;19.216;2023-03-17T04:45:08;-0.40;99.90
25877;DHT22;13692;47.480;19.216;2023-03-17T04:47:36;-0.40;99.90
25877;DHT22;13692;47.480;19.216;2023-03-17T04:50:04;-0.40;99.90
25877;DHT22;13692;47.480;19.216;2023-03-17T04:52:31;-0.40;99.90
25877;DHT22;13692;47.480;19.216;2023-03-17T04:54:58;-0.40;99.90
25877;DHT22;13692;47.480;19.216;2023-03-17T04:57:25;-0.40;99.90
25877;DHT22;13692;47.480;19.216;2023-03-17T04:59:52;-0.50;99.90
25877;DHT22;13692;47.480;19.216;2023-03-17T05:02:18;-0.50;99.90
25877;DHT22;13692;47.480;19.216;2023-03-17T05:04:46;-0.50;99.90
25877;DHT22;13692;47.480;19.216;2023-03-17T05:07:13;-0.50;99.90
25877;DHT22;13692;47.480;19.216;2023-03-17T05:09:40;-0.60;99.90
25877;DHT22;13692;47.480;19.216;2023-03-17T05:12:08;-0.50;99.90
25877;DHT22;13692;47.480;19.216;2023-03-17T05:14:36;-0.40;99.90
25877;DHT22;13692;47.480;19.216;2023-03-17T05:17:03;0.00;99.90
25877;DHT22;13692;47.480;19.216;2023-03-17T05:19:30;-0.30;99.90
25877;DHT22;13692;47.480;19.216;2023-03-17T05:21:57;-0.30;99.90
25877;DHT22;13692;47.480;19.216;2023-03-17T05:24:24;-0.20;99.90
25877;DHT22;13692;47.480;19.216;2023-03-17T05:26:51;-0.10;99.90
25877;DHT22;13692;47.480;19.216;2023-03-17T05:29:18;-0.10;99.90
25877;DHT22;13692;47.480;19.216;2023-03-17T05:31:45;0.00;99.90
25877;DHT22;13692;47.480;19.216;2023-03-17T05:34:13;0.20;99.90
25877;DHT22;13692;47.480;19.216;2023-03-17T05:36:40;0.30;99.90
25877;DHT22;13692;47.480;19.216;2023-03-17T05:39:07;0.40;99.90
25877;DHT22;13692;47.480;19.216;2023-03-17T05:41:34;0.50;99.90
25877;DHT22;13692;47.480;19.216;2023-03-17T05:44:01;0.60;99.90
25877;DHT22;13692;47.480;19.216;2023-03-17T05:46:28;0.90;99.90
25877;DHT22;13692;47.480;19.216;2023-03-17T05:48:56;1.20;99.90
25877;DHT22;13692;47.480;19.216;2023-03-17T05:51:23;1.40;99.90
25877;DHT22;13692;47.480;19.216;2023-03-17T05:53:50;1.60;99.90
25877;DHT22;13692;47.480;19.216;2023-03-17T05:56:17;1.80;99.90
25877;DHT22;13692;47.480;19.216;2023-03-17T05:58:44;1.90;99.90
25877;DHT22;13692;47.480;19.216;2023-03-17T06:01:11;2.00;99.90
25877;DHT22;13692;47.480;19.216;2023-03-17T06:03:38;2.30;99.90
25877;DHT22;13692;47.480;19.216;2023-03-17T06:06:05;2.70;99.90
25877;DHT22;13692;47.480;19.216;2023-03-17T06:08:32;3.00;99.90
25877;DHT22;13692;47.480;19.216;2023-03-17T06:10:59;3.40;99.90
25877;DHT22;13692;47.480;19.216;2023-03-17T06:13:26;3.70;99.90
25877;DHT22;13692;47.480;19.216;2023-03-17T06:15:53;4.10;99.90
25877;DHT22;13692;47.480;19.216;2023-03-17T06:18:20;4.40;99.90
25877;DHT22;13692;47.480;19.216;2023-03-17T06:20:47;4.80;99.90
25877;DHT22;13692;47.480;19.216;2023-03-17T06:23:14;5.10;99.90
25877;DHT22;13692;47.480;19.216;2023-03-17T06:25:41;5.60;99.90
25877;DHT22;13692;47.480;19.216;2023-03-17T06:28:08;6.00;99.90
25877;DHT22;13692;47.480;19.216;2023-03-17T06:30:36;6.30;98.80
25877;DHT22;13692;47.480;19.216;2023-03-17T06:33:06;6.70;96.90
25877;DHT22;13692;47.480;19.216;2023-03-17T06:35:33;6.80;96.00
25877;DHT22;13692;47.480;19.216;2023-03-17T06:38:01;7.00;96.00
25877;DHT22;13692;47.480;19.216;2023-03-17T06:40:29;7.20;94.80
25877;DHT22;13692;47.480;19.216;2023-03-17T06:42:56;7.50;94.30
25877;DHT22;13692;47.480;19.216;2023-03-17T06:45:23;7.80;93.90
25877;DHT22;13692;47.480;19.216;2023-03-17T06:47:50;8.10;92.80
25877;DHT22;13692;47.480;19.216;2023-03-17T06:50:17;8.40;91.70
25877;DHT22;13692;47.480;19.216;2023-03-17T06:52:44;8.50;91.20
25877;DHT22;13692;47.480;19.216;2023-03-17T06:55:12;8.60;90.90
25877;DHT22;13692;47.480;19.216;2023-03-17T06:57:41;8.60;90.60
25877;DHT22;13692;47.480;19.216;2023-03-17T07:00:09;8.60;89.50
25877;DHT22;13692;47.480;19.216;2023-03-17T07:02:38;8.80;89.50
25877;DHT22;13692;47.480;19.216;2023-03-17T07:05:05;9.10;88.80
25877;DHT22;13692;47.480;19.216;2023-03-17T07:07:33;9.40;88.70
25877;DHT22;13692;47.480;19.216;2023-03-17T07:10:01;9.80;87.20
25877;DHT22;13692;47.480;19.216;2023-03-17T07:12:29;10.00;85.70
25877;DHT22;13692;47.480;19.216;2023-03-17T07:14:58;10.10;84.20
25877;DHT22;13692;47.480;19.216;2023-03-17T07:17:25;10.40;83.00
25877;DHT22;13692;47.480;19.216;2023-03-17T07:19:52;10.40;82.10
25877;DHT22;13692;47.480;19.216;2023-03-17T07:22:18;10.60;83.40
25877;DHT22;13692;47.480;19.216;2023-03-17T07:24:46;11.20;82.60
25877;DHT22;13692;47.480;19.216;2023-03-17T07:27:15;11.80;80.90
25877;DHT22;13692;47.480;19.216;2023-03-17T07:29:42;12.10;77.80
25877;DHT22;13692;47.480;19.216;2023-03-17T07:32:09;12.20;76.60
25877;DHT22;13692;47.480;19.216;2023-03-17T07:34:37;12.30;76.70
25877;DHT22;13692;47.480;19.216;2023-03-17T07:37:04;12.70;74.80
25877;DHT22;13692;47.480;19.216;2023-03-17T07:39:32;12.80;74.10
25877;DHT22;13692;47.480;19.216;2023-03-17T07:41:59;13.10;73.10
25877;DHT22;13692;47.480;19.216;2023-03-17T07:44:26;13.50;71.90
25877;DHT22;13692;47.480;19.216;2023-03-17T07:46:54;13.70;70.10
25877;DHT22;13692;47.480;19.216;2023-03-17T07:49:22;13.90;68.80
25877;DHT22;13692;47.480;19.216;2023-03-17T07:52:06;13.70;66.20
25877;DHT22;13692;47.480;19.216;2023-03-17T07:54:34;13.80;66.20
25877;DHT22;13692;47.480;19.216;2023-03-17T07:57:02;13.70;63.50
25877;DHT22;13692;47.480;19.216;2023-03-17T07:59:30;13.30;63.40
25877;DHT22;13692;47.480;19.216;2023-03-17T08:01:57;13.60;64.20
25877;DHT22;13692;47.480;19.216;2023-03-17T08:04:27;13.70;62.20
25877;DHT22;13692;47.480;19.216;2023-03-17T08:06:54;13.60;61.80
25877;DHT22;13692;47.480;19.216;2023-03-17T08:09:21;13.60;61.70
25877;DHT22;13692;47.480;19.216;2023-03-17T08:11:48;13.60;60.80
25877;DHT22;13692;47.480;19.216;2023-03-17T08:14:16;13.50;59.20
25877;DHT22;13692;47.480;19.216;2023-03-17T08:16:43;13.50;59.50
25877;DHT22;13692;47.480;19.216;2023-03-17T08:19:10;13.20;58.60
25877;DHT22;13692;47.480;19.216;2023-03-17T08:21:37;13.30;58.40
25877;DHT22;13692;47.480;19.216;2023-03-17T08:24:04;13.30;59.10
25877;DHT22;13692;47.480;19.216;2023-03-17T08:26:31;13.50;58.90
25877;DHT22;13692;47.480;19.216;2023-03-17T08:28:59;13.80;57.90
25877;DHT22;13692;47.480;19.216;2023-03-17T08:31:27;14.00;58.10
25877;DHT22;13692;47.480;19.216;2023-03-17T08:33:54;14.20;56.00
25877;DHT22;13692;47.480;19.216;2023-03-17T08:36:24;13.90;57.00
25877;DHT22;13692;47.480;19.216;2023-03-17T08:38:52;14.10;57.20
25877;DHT22;13692;47.480;19.216;2023-03-17T08:41:21;14.60;56.20
25877;DHT22;13692;47.480;19.216;2023-03-17T08:43:49;14.70;55.70
25877;DHT22;13692;47.480;19.216;2023-03-17T08:46:22;14.80;55.80
25877;DHT22;13692;47.480;19.216;2023-03-17T08:48:51;14.80;54.10
25877;DHT22;13692;47.480;19.216;2023-03-17T08:51:20;14.70;54.90
25877;DHT22;13692;47.480;19.216;2023-03-17T08:53:51;14.70;55.20
25877;DHT22;13692;47.480;19.216;2023-03-17T08:56:18;15.20;53.50
25877;DHT22;13692;47.480;19.216;2023-03-17T08:58:46;15.60;53.10
25877;DHT22;13692;47.480;19.216;2023-03-17T09:01:14;15.10;52.50
25877;DHT22;13692;47.480;19.216;2023-03-17T09:03:42;15.20;52.70
25877;DHT22;13692;47.480;19.216;2023-03-17T09:06:10;15.10;52.70
25877;DHT22;13692;47.480;19.216;2023-03-17T09:08:40;15.30;52.60
25877;DHT22;13692;47.480;19.216;2023-03-17T09:11:13;14.90;52.00
25877;DHT22;13692;47.480;19.216;2023-03-17T09:13:42;14.80;51.50
25877;DHT22;13692;47.480;19.216;2023-03-17T09:16:10;14.70;51.30
25877;DHT22;13692;47.480;19.216;2023-03-17T09:18:38;14.60;51.90
25877;DHT22;13692;47.480;19.216;2023-03-17T09:21:05;14.50;52.00
25877;DHT22;13692;47.480;19.216;2023-03-17T09:23:32;14.80;51.80
25877;DHT22;13692;47.480;19.216;2023-03-17T09:26:00;15.30;51.60
25877;DHT22;13692;47.480;19.216;2023-03-17T09:28:28;15.50;50.90
25877;DHT22;13692;47.480;19.216;2023-03-17T09:30:59;15.70;49.30
25877;DHT22;13692;47.480;19.216;2023-03-17T09:33:27;15.00;49.00
25877;DHT22;13692;47.480;19.216;2023-03-17T09:35:55;14.80;50.20
25877;DHT22;13692;47.480;19.216;2023-03-17T09:38:26;14.50;49.90
25877;DHT22;13692;47.480;19.216;2023-03-17T09:41:28;14.30;50.70
25877;DHT22;13692;47.480;19.216;2023-03-17T09:47:10;14.20;50.90
25877;DHT22;13692;47.480;19.216;2023-03-17T09:49:48;14.10;51.70
25877;DHT22;13692;47.480;19.216;2023-03-17T09:52:29;13.80;51.50
25877;DHT22;13692;47.480;19.216;2023-03-17T09:54:56;14.00;51.00
25877;DHT22;13692;47.480;19.216;2023-03-17T09:57:35;13.50;51.70
25877;DHT22;13692;47.480;19.216;2023-03-17T10:02:36;13.60;51.50
25877;DHT22;13692;47.480;19.216;2023-03-17T10:07:45;13.80;52.30
25877;DHT22;13692;47.480;19.216;2023-03-17T10:10:32;14.00;51.60
25877;DHT22;13692;47.480;19.216;2023-03-17T10:13:18;13.60;50.90
25877;DHT22;13692;47.480;19.216;2023-03-17T10:15:49;12.90;51.50
25877;DHT22;13692;47.480;19.216;2023-03-17T10:18:23;12.50;52.10
25877;DHT22;13692;47.480;19.216;2023-03-17T10:20:58;12.40;52.30
25877;DHT22;13692;47.480;19.216;2023-03-17T10:23:31;12.50;53.30
25877;DHT22;13692;47.480;19.216;2023-03-17T10:26:06;12.70;54.10
25877;DHT22;13692;47.480;19.216;2023-03-17T10:28:35;12.70;53.60
25877;DHT22;13692;47.480;19.216;2023-03-17T10:33:44;13.20;52.80
25877;DHT22;13692;47.480;19.216;2023-03-17T10:36:14;12.80;53.30
25877;DHT22;13692;47.480;19.216;2023-03-17T10:38:52;12.90;54.60
25877;DHT22;13692;47.480;19.216;2023-03-17T10:41:22;13.00;53.80
25877;DHT22;13692;47.480;19.216;2023-03-17T10:43:49;13.20;53.80
25877;DHT22;13692;47.480;19.216;2023-03-17T10:46:20;13.30;53.50
25877;DHT22;13692;47.480;19.216;2023-03-17T10:48:58;13.20;52.40
25877;DHT22;13692;47.480;19.216;2023-03-17T10:51:33;12.70;52.80
25877;DHT22;13692;47.480;19.216;2023-03-17T10:54:09;12.40;54.60
25877;DHT22;13692;47.480;19.216;2023-03-17T10:56:38;12.30;55.00
25877;DHT22;13692;47.480;19.216;2023-03-17T10:59:20;12.00;55.10
25877;DHT22;13692;47.480;19.216;2023-03-17T11:02:05;11.80;55.30
25877;DHT22;13692;47.480;19.216;2023-03-17T11:04:36;11.90;54.80
25877;DHT22;13692;47.480;19.216;2023-03-17T11:07:39;11.90;54.90
25877;DHT22;13692;47.480;19.216;2023-03-17T11:10:23;12.20;55.80
25877;DHT22;13692;47.480;19.216;2023-03-17T11:12:58;12.20;55.20
25877;DHT22;13692;47.480;19.216;2023-03-17T11:15:42;11.90;55.90
25877;DHT22;13692;47.480;19.216;2023-03-17T11:18:21;11.70;55.60
25877;DHT22;13692;47.480;19.216;2023-03-17T11:20:50;11.50;56.00
25877;DHT22;13692;47.480;19.216;2023-03-17T11:23:57;11.40;56.40
25877;DHT22;13692;47.480;19.216;2023-03-17T11:26:51;11.50;56.80
25877;DHT22;13692;47.480;19.216;2023-03-17T11:34:34;11.80;58.20
25877;DHT22;13692;47.480;19.216;2023-03-17T11:37:35;11.80;58.00
25877;DHT22;13692;47.480;19.216;2023-03-17T11:40:13;11.70;56.50
25877;DHT22;13692;47.480;19.216;2023-03-17T11:45:47;11.30;57.10
25877;DHT22;13692;47.480;19.216;2023-03-17T11:56:47;11.90;57.00
25877;DHT22;13692;47.480;19.216;2023-03-17T12:05:05;11.40;58.50
25877;DHT22;13692;47.480;19.216;2023-03-17T12:07:36;11.40;57.80
25877;DHT22;13692;47.480;19.216;2023-03-17T12:15:51;11.40;58.00
25877;DHT22;13692;47.480;19.216;2023-03-17T12:18:36;11.50;58.20
25877;DHT22;13692;47.480;19.216;2023-03-17T12:21:18;11.30;58.10
25877;DHT22;13692;47.480;19.216;2023-03-17T12:24:14;11.20;58.30
25877;DHT22;13692;47.480;19.216;2023-03-17T12:29:56;11.40;59.80
25877;DHT22;13692;47.480;19.216;2023-03-17T12:32:23;11.40;59.30
25877;DHT22;13692;47.480;19.216;2023-03-17T12:34:55;11.20;58.80
25877;DHT22;13692;47.480;19.216;2023-03-17T12:37:25;11.20;59.20
25877;DHT22;13692;47.480;19.216;2023-03-17T12:45:14;11.50;58.30
25877;DHT22;13692;47.480;19.216;2023-03-17T12:51:01;11.30;58.30
25877;DHT22;13692;47.480;19.216;2023-03-17T12:53:40;11.50;59.00
25877;DHT22;13692;47.480;19.216;2023-03-17T12:56:15;11.70;58.40
25877;DHT22;13692;47.480;19.216;2023-03-17T12:58:47;11.70;58.90
25877;DHT22;13692;47.480;19.216;2023-03-17T13:07:18;11.80;58.10
25877;DHT22;13692;47.480;19.216;2023-03-17T13:20:51;11.80;58.10
25877;DHT22;13692;47.480;19.216;2023-03-17T13:23:19;11.60;57.50
25877;DHT22;13692;47.480;19.216;2023-03-17T13:25:58;11.40;57.30
25877;DHT22;13692;47.480;19.216;2023-03-17T13:28:40;11.40;58.00
25877;DHT22;13692;47.480;19.216;2023-03-17T13:33:55;11.70;58.10
25877;DHT22;13692;47.480;19.216;2023-03-17T13:36:37;11.70;57.60
25877;DHT22;13692;47.480;19.216;2023-03-17T13:39:25;11.50;57.90
25877;DHT22;13692;47.480;19.216;2023-03-17T13:45:19;11.50;58.80
25877;DHT22;13692;47.480;19.216;2023-03-17T13:47:50;11.50;57.70
25877;DHT22;13692;47.480;19.216;2023-03-17T13:50:30;11.50;58.20
25877;DHT22;13692;47.480;19.216;2023-03-17T13:53:05;11.40;57.40
25877;DHT22;13692;47.480;19.216;2023-03-17T13:55:37;11.40;57.20
25877;DHT22;13692;47.480;19.216;2023-03-17T14:00:47;11.50;57.20
25877;DHT22;13692;47.480;19.216;2023-03-17T14:03:17;11.50;58.40
25877;DHT22;13692;47.480;19.216;2023-03-17T14:05:47;11.60;59.60
25877;DHT22;13692;47.480;19.216;2023-03-17T14:08:26;11.50;58.60
25877;DHT22;13692;47.480;19.216;2023-03-17T14:10:57;11.40;59.00
25877;DHT22;13692;47.480;19.216;2023-03-17T14:13:37;11.50;60.20
25877;DHT22;13692;47.480;19.216;2023-03-17T14:16:30;11.60;59.40
25877;DHT22;13692;47.480;19.216;2023-03-17T14:19:18;11.50;59.30
25877;DHT22;13692;47.480;19.216;2023-03-17T14:21:46;11.60;60.60
25877;DHT22;13692;47.480;19.216;2023-03-17T14:24:22;11.50;59.10
25877;DHT22;13692;47.480;19.216;2023-03-17T14:26:50;11.50;59.10
25877;DHT22;13692;47.480;19.216;2023-03-17T14:29:21;11.30;59.60
25877;DHT22;13692;47.480;19.216;2023-03-17T14:31:59;11.30;59.30
25877;DHT22;13692;47.480;19.216;2023-03-17T14:34:27;11.30;59.40
25877;DHT22;13692;47.480;19.216;2023-03-17T14:37:02;11.30;58.80
25877;DHT22;13692;47.480;19.216;2023-03-17T14:39:30;11.30;58.90
25877;DHT22;13692;47.480;19.216;2023-03-17T14:42:02;11.30;59.60
25877;DHT22;13692;47.480;19.216;2023-03-17T14:44:41;11.30;59.00
25877;DHT22;13692;47.480;19.216;2023-03-17T14:47:19;11.30;59.50
25877;DHT22;13692;47.480;19.216;2023-03-17T14:49:50;11.40;59.70
25877;DHT22;13692;47.480;19.216;2023-03-17T14:52:24;11.50;58.80
25877;DHT22;13692;47.480;19.216;2023-03-17T14:54:54;11.40;58.70
25877;DHT22;13692;47.480;19.216;2023-03-17T14:57:30;11.40;59.10
25877;DHT22;13692;47.480;19.216;2023-03-17T15:00:42;11.40;58.70
25877;DHT22;13692;47.480;19.216;2023-03-17T15:02:54;11.40;58.70
25877;DHT22;13692;47.480;19.216;2023-03-17T15:07:53;11.40;59.20
25877;DHT22;13692;47.480;19.216;2023-03-17T15:10:23;11.40;58.10
25877;DHT22;13692;47.480;19.216;2023-03-17T15:13:02;11.30;58.30
25877;DHT22;13692;47.480;19.216;2023-03-17T15:15:39;11.20;59.00
25877;DHT22;13692;47.480;19.216;2023-03-17T15:18:12;11.10;59.10
25877;DHT22;13692;47.480;19.216;2023-03-17T15:20:41;11.20;58.80
25877;DHT22;13692;47.480;19.216;2023-03-17T15:23:18;11.10;59.00
25877;DHT22;13692;47.480;19.216;2023-03-17T15:25:51;11.10;59.70
25877;DHT22;13692;47.480;19.216;2023-03-17T15:28:24;11.10;58.90
25877;DHT22;13692;47.480;19.216;2023-03-17T15:31:09;11.10;59.10
25877;DHT22;13692;47.480;19.216;2023-03-17T15:33:38;11.10;59.10
25877;DHT22;13692;47.480;19.216;2023-03-17T15:36:14;11.10;59.30
25877;DHT22;13692;47.480;19.216;2023-03-17T15:38:58;11.00;58.80
25877;DHT22;13692;47.480;19.216;2023-03-17T15:41:25;11.00;59.60
25877;DHT22;13692;47.480;19.216;2023-03-17T15:43:51;11.00;59.80
25877;DHT22;13692;47.480;19.216;2023-03-17T15:46:26;11.10;60.10
25877;DHT22;13692;47.480;19.216;2023-03-17T15:48:57;11.10;60.20
25877;DHT22;13692;47.480;19.216;2023-03-17T15:51:24;11.20;59.70
25877;DHT22;13692;47.480;19.216;2023-03-17T15:53:51;11.10;60.00
25877;DHT22;13692;47.480;19.216;2023-03-17T15:56:19;11.10;60.60
25877;DHT22;13692;47.480;19.216;2023-03-17T15:58:48;11.10;60.00
25877;DHT22;13692;47.480;19.216;2023-03-17T16:01:17;11.10;59.80
25877;DHT22;13692;47.480;19.216;2023-03-17T16:03:47;11.00;59.80
25877;DHT22;13692;47.480;19.216;2023-03-17T16:06:17;10.90;60.30
25877;DHT22;13692;47.480;19.216;2023-03-17T16:08:44;10.80;60.40
25877;DHT22;13692;47.480;19.216;2023-03-17T16:11:17;10.80;60.70
25877;DHT22;13692;47.480;19.216;2023-03-17T16:13:47;10.70;60.50
25877;DHT22;13692;47.480;19.216;2023-03-17T16:16:31;10.70;61.10
25877;DHT22;13692;47.480;19.216;2023-03-17T16:18:59;10.60;60.60
25877;DHT22;13692;47.480;19.216;2023-03-17T16:21:28;10.60;61.30
25877;DHT22;13692;47.480;19.216;2023-03-17T16:23:55;10.50;60.80
25877;DHT22;13692;47.480;19.216;2023-03-17T16:26:22;10.50;61.40
25877;DHT22;13692;47.480;19.216;2023-03-17T16:28:49;10.50;61.50
25877;DHT22;13692;47.480;19.216;2023-03-17T16:33:49;10.30;62.20
25877;DHT22;13692;47.480;19.216;2023-03-17T16:36:18;10.30;62.60
25877;DHT22;13692;47.480;19.216;2023-03-17T16:38:46;10.20;62.60
25877;DHT22;13692;47.480;19.216;2023-03-17T16:41:19;10.20;63.20
25877;DHT22;13692;47.480;19.216;2023-03-17T16:43:49;10.10;63.10
25877;DHT22;13692;47.480;19.216;2023-03-17T16:46:19;10.00;63.60
25877;DHT22;13692;47.480;19.216;2023-03-17T16:48:48;10.00;63.70
25877;DHT22;13692;47.480;19.216;2023-03-17T16:51:15;9.90;64.20
25877;DHT22;13692;47.480;19.216;2023-03-17T16:53:43;9.90;65.30
25877;DHT22;13692;47.480;19.216;2023-03-17T16:56:15;9.80;64.50
25877;DHT22;13692;47.480;19.216;2023-03-17T16:58:45;9.80;64.80
25877;DHT22;13692;47.480;19.216;2023-03-17T17:01:19;9.60;65.20
25877;DHT22;13692;47.480;19.216;2023-03-17T17:03:47;9.60;65.60
25877;DHT22;13692;47.480;19.216;2023-03-17T17:06:15;9.60;65.80
25877;DHT22;13692;47.480;19.216;2023-03-17T17:08:45;9.50;66.10